Aviation Digital Data Service (ADDS)

Output produced by METARs form (2308 UTC 15 August 2018)
found at http://www.aviationweather.gov/adds/metars/
 
KSAV 152253Z 18007KT 10SM FEW044CB FEW060 SCT085 BKN150 BKN220 29/23 A3007 RMK AO2 LTG DSNT W SLP182 CB SW-W T02890233
KSVN 152256Z AUTO 18007KT 10SM CLR 28/23 A3005 RMK AO2 SLP179 T02800233 FZRANO $
KLHW 152256Z AUTO 23011KT 10SM FEW048 FEW060 BKN100 BKN120 27/21 A3007 RMK AO2 PK WND 20027/18 LTG DSNT NW SLP185 T02660213 $
KTBR 152255Z AUTO 18005KT 10SM BKN049 BKN060 BKN070 29/23 A3006 RMK AO2 LTG DSNT S AND NW T02900229
KVDI 152255Z AUTO 21010G14KT 10SM SCT040 SCT046 BKN050 27/21 A3008 RMK AO2 LTG DSNT NE
KJYL 152255Z AUTO 21004KT 10SM CLR 30/25 A3007 RMK AO2 LTG DSNT S AND SW T03000252
KDBN 152255Z AUTO 00000KT 10SM CLR 30/21 A3007 RMK AO2
KSSI 152253Z AUTO 25007KT 10SM CLR 29/21 A3008 RMK AO2 SLP189 T02890211
KBQK 152255Z AUTO 26005KT 10SM CLR 27/21 A3009 RMK AO2 LTG DSNT N
KAYS 152255Z AUTO 24005KT 10SM -DZ SCT070 SCT090 BKN110 26/24 A3008 RMK AO2 LTG DSNT NE T02550237
KNBC 152256Z 21008KT 10SM SCT060 BKN120 28/23 A3007 RMK AO2 RAB14E52 SLP181 P0000 T02780233
KHXD 152250Z 20012KT 10SM FEW020 29/24 A3008